createdAt,value
2019-04-27T00:00:46.121Z,94823.70
2019-04-27T00:03:19.079Z,94825.52
2019-04-27T00:05:55.064Z,94826.93
2019-04-27T00:08:28.521Z,94827.34
2019-04-27T00:10:59.779Z,94823.08
2019-04-27T00:13:28.046Z,94830.44
2019-04-27T00:16:11.144Z,94825.85
2019-04-27T00:18:54.854Z,94825.09
2019-04-27T00:21:23.709Z,94831.64
2019-04-27T00:23:53.221Z,94830.45
2019-04-27T00:26:23.325Z,94828.76
2019-04-27T00:28:53.750Z,94826.39
2019-04-27T00:31:23.423Z,94820.14
2019-04-27T00:33:53.557Z,94818.95
2019-04-27T00:36:40.365Z,94812.96
2019-04-27T00:39:13.919Z,94804.08
2019-04-27T00:41:43.001Z,94800.20
2019-04-27T00:44:13.468Z,94797.56
2019-04-27T00:46:43.139Z,94792.02
2019-04-27T00:49:13.667Z,94792.89
2019-04-27T00:51:43.380Z,94785.99
2019-04-27T00:54:13.614Z,94781.76
2019-04-27T00:56:50.203Z,94781.76
2019-04-27T00:59:37.976Z,94763.80
2019-04-27T01:02:23.313Z,94767.58
2019-04-27T01:04:52.960Z,94767.10
2019-04-27T01:07:22.756Z,94761.13
2019-04-27T01:09:52.789Z,94755.90
2019-04-27T01:12:21.718Z,94746.47
2019-04-27T01:14:50.331Z,94749.91
2019-04-27T01:17:19.079Z,94741.41
2019-04-27T01:19:49.266Z,94739.23
2019-04-27T01:22:18.868Z,94741.30
2019-04-27T01:24:49.165Z,94751.05
2019-04-27T01:27:35.608Z,94755.69
2019-04-27T01:30:08.780Z,94751.29
2019-04-27T01:32:39.201Z,94743.20
2019-04-27T01:35:08.761Z,94744.53
2019-04-27T01:37:38.662Z,94745.84
2019-04-27T01:40:07.407Z,94757.81
2019-04-27T01:42:35.947Z,94755.59
2019-04-27T01:45:08.535Z,94756.56
2019-04-27T01:47:39.077Z,94766.92
2019-04-27T01:50:08.801Z,94766.52
2019-04-27T01:52:38.544Z,94760.58
2019-04-27T01:55:08.665Z,94770.15
2019-04-27T01:57:38.621Z,94770.22
2019-04-27T02:00:29.816Z,94771.50
2019-04-27T02:03:00.062Z,94771.91
2019-04-27T02:05:33.422Z,94772.84
2019-04-27T02:08:02.108Z,94781.48
2019-04-27T02:10:30.713Z,94776.80
2019-04-27T02:12:59.325Z,94769.10
2019-04-27T02:15:29.360Z,94760.95
2019-04-27T02:17:59.663Z,94756.27
2019-04-27T02:20:29.982Z,94755.38
2019-04-27T02:22:58.936Z,94758.36
2019-04-27T02:25:29.357Z,94767.69
2019-04-27T02:27:59.527Z,94771.05
2019-04-27T02:30:35.653Z,94757.73
2019-04-27T02:33:22.368Z,94759.37
2019-04-27T02:35:51.348Z,94756.31
2019-04-27T02:38:20.295Z,94751.60
2019-04-27T02:40:52.191Z,94745.98
2019-04-27T02:43:22.935Z,94747.65
2019-04-27T02:45:51.537Z,94736.45
2019-04-27T02:48:20.180Z,94743.55
2019-04-27T02:50:50.447Z,94744.66
2019-04-27T02:53:20.702Z,94730.55
2019-04-27T02:55:49.951Z,94729.27
2019-04-27T02:58:21.449Z,94732.17
2019-04-27T03:00:50.177Z,94726.14
2019-04-27T03:03:20.390Z,94727.84
2019-04-27T03:05:50.346Z,94727.42
2019-04-27T03:08:20.089Z,94725.31
2019-04-27T03:10:50.393Z,94725.27
2019-04-27T03:13:23.583Z,94724.33
2019-04-27T03:16:11.209Z,94721.70
2019-04-27T03:18:42.082Z,94705.08
2019-04-27T03:21:13.124Z,94710.55
2019-04-27T03:23:41.963Z,94703.69
2019-04-27T03:26:12.212Z,94701.47
2019-04-27T03:28:40.815Z,94697.23
2019-04-27T03:31:13.401Z,94694.52
2019-04-27T03:33:42.942Z,94687.61
2019-04-27T03:36:13.550Z,94691.35
2019-04-27T03:38:42.312Z,94694.33
2019-04-27T03:41:10.986Z,94696.83
2019-04-27T03:43:40.386Z,94698.52
2019-04-27T03:46:10.303Z,94699.80
2019-04-27T03:48:40.677Z,94708.80
2019-04-27T03:51:11.737Z,94708.68
2019-04-27T03:53:41.977Z,94700.48
2019-04-27T03:56:14.615Z,94709.86
2019-04-27T03:58:46.162Z,94713.33
2019-04-27T04:01:14.781Z,94712.50
2019-04-27T04:03:43.617Z,94716.34
2019-04-27T04:06:12.237Z,94717.52
2019-04-27T04:08:40.858Z,94715.30
2019-04-27T04:11:30.382Z,94714.34
2019-04-27T04:14:03.331Z,94708.72
2019-04-27T04:16:36.440Z,94712.98
2019-04-27T04:19:10.007Z,94713.81
2019-04-27T04:21:40.085Z,94710.30
2019-04-27T04:24:11.854Z,94714.98
2019-04-27T04:26:40.232Z,94726.06
2019-04-27T04:29:10.297Z,94743.50
2019-04-27T04:31:40.390Z,94751.59
2019-04-27T04:34:12.031Z,94765.11
2019-04-27T04:36:42.663Z,94767.98
2019-04-27T04:39:12.441Z,94771.34
2019-04-27T04:41:51.016Z,94770.89
2019-04-27T04:44:21.501Z,94777.31
2019-04-27T04:47:06.974Z,94777.77
2019-04-27T04:49:35.507Z,94775.66
2019-04-27T04:52:04.224Z,94789.37
2019-04-27T04:54:32.773Z,94791.90
2019-04-27T04:57:01.323Z,94793.63
2019-04-27T04:59:30.114Z,94796.24
2019-04-27T05:02:01.908Z,94791.11
2019-04-27T05:04:29.252Z,94783.89
2019-04-27T05:06:59.192Z,94782.11
2019-04-27T05:09:29.590Z,94772.74
2019-04-27T05:11:58.716Z,94769.68
2019-04-27T05:14:28.845Z,94758.95
2019-04-27T05:16:59.246Z,94771.76
2019-04-27T05:19:28.867Z,94756.19
2019-04-27T05:21:59.315Z,94769.76
2019-04-27T05:24:29.231Z,94780.34
2019-04-27T05:26:59.039Z,94774.21
2019-04-27T05:29:29.258Z,94772.73
2019-04-27T05:31:59.644Z,94776.02
2019-04-27T05:34:29.414Z,94777.98
2019-04-27T05:36:59.345Z,94783.42
2019-04-27T05:39:29.953Z,94782.88
2019-04-27T05:41:59.692Z,94786.50
2019-04-27T05:44:45.212Z,94792.68
2019-04-27T05:47:13.103Z,94802.28
2019-04-27T05:49:44.595Z,94802.03
2019-04-27T05:52:29.376Z,94801.30
2019-04-27T05:54:59.202Z,94797.64
2019-04-27T05:57:31.225Z,94803.33
2019-04-27T06:00:01.908Z,94795.78
2019-04-27T06:02:30.547Z,94802.79
2019-04-27T06:05:00.001Z,94798.21
2019-04-27T06:07:29.638Z,94792.31
2019-04-27T06:09:59.833Z,94785.94
2019-04-27T06:12:29.632Z,94782.61
2019-04-27T06:14:59.980Z,94783.55
2019-04-27T06:17:29.861Z,94782.44
2019-04-27T06:19:59.502Z,94776.14
2019-04-27T06:22:29.247Z,94779.22
2019-04-27T06:25:00.074Z,94779.17
2019-04-27T06:27:30.517Z,94775.67
2019-04-27T06:29:59.797Z,94779.85
2019-04-27T06:32:29.591Z,94775.45
2019-04-27T06:34:59.173Z,94776.59
2019-04-27T06:37:29.300Z,94771.30
2019-04-27T06:40:00.072Z,94765.69
2019-04-27T06:42:29.692Z,94766.84
2019-04-27T06:44:59.909Z,94762.45
2019-04-27T06:47:29.792Z,94770.24
2019-04-27T06:49:58.756Z,94765.64
2019-04-27T06:52:29.200Z,94760.33
2019-04-27T06:54:57.962Z,94752.84
2019-04-27T06:57:26.506Z,94749.16
2019-04-27T06:59:54.987Z,94760.94
2019-04-27T07:02:23.774Z,94761.55
2019-04-27T07:04:52.423Z,94764.85
2019-04-27T07:07:20.960Z,94765.16
2019-04-27T07:09:49.620Z,94757.97
2019-04-27T07:12:19.685Z,94755.17
2019-04-27T07:14:52.847Z,94749.79
2019-04-27T07:17:19.173Z,94752.22
2019-04-27T07:19:49.676Z,94739.48
2019-04-27T07:22:20.031Z,94743.91
2019-04-27T07:24:49.180Z,94742.00
2019-04-27T07:27:20.968Z,94744.36
2019-04-27T07:29:49.516Z,94752.36
2019-04-27T07:32:19.307Z,94750.47
2019-04-27T07:34:49.781Z,94754.66
2019-04-27T07:37:19.571Z,94754.12
2019-04-27T07:39:49.216Z,94752.68
2019-04-27T07:42:20.801Z,94749.27
2019-04-27T07:45:09.293Z,94753.14
2019-04-27T07:47:40.748Z,94752.55
2019-04-27T07:50:09.773Z,94757.55
2019-04-27T07:52:40.391Z,94764.16
2019-04-27T07:55:08.915Z,94764.14
2019-04-27T07:57:37.458Z,94773.44
2019-04-27T08:00:09.581Z,94774.18
2019-04-27T08:02:39.002Z,94772.23
2019-04-27T08:05:09.360Z,94778.95
2019-04-27T08:07:39.152Z,94782.20
2019-04-27T08:10:09.770Z,94781.13
2019-04-27T08:12:38.772Z,94779.74
2019-04-27T08:15:09.563Z,94779.37
2019-04-27T08:17:40.569Z,94784.84
2019-04-27T08:20:09.360Z,94788.45
2019-04-27T08:22:38.940Z,94795.02
2019-04-27T08:25:09.531Z,94796.98
2019-04-27T08:27:39.879Z,94807.56
2019-04-27T08:30:10.397Z,94806.28
2019-04-27T08:32:41.522Z,94813.48
2019-04-27T08:35:11.453Z,94809.55
2019-04-27T08:37:40.112Z,94813.00
2019-04-27T08:40:10.025Z,94819.03
2019-04-27T08:42:39.230Z,94814.78
2019-04-27T08:45:09.411Z,94813.70
2019-04-27T08:47:41.385Z,94812.84
2019-04-27T08:50:09.583Z,94816.36
2019-04-27T08:52:39.365Z,94819.40
2019-04-27T08:55:09.543Z,94818.91
2019-04-27T08:57:38.776Z,94825.11
2019-04-27T09:00:11.030Z,94827.97
2019-04-27T09:02:46.295Z,94826.17
2019-04-27T09:05:10.650Z,94835.16
2019-04-27T09:07:56.865Z,94830.87
2019-04-27T09:10:38.901Z,94831.47
2019-04-27T09:13:11.476Z,94824.28
2019-04-27T09:15:53.261Z,94826.50
2019-04-27T09:18:23.462Z,94833.87
2019-04-27T09:20:53.710Z,94822.25
2019-04-27T09:23:22.316Z,94826.88
2019-04-27T09:25:50.871Z,94823.55
2019-04-27T09:28:20.165Z,94823.03
2019-04-27T09:30:49.954Z,94825.59
2019-04-27T09:33:18.595Z,94829.03
2019-04-27T09:35:47.303Z,94821.91
2019-04-27T09:38:16.721Z,94826.18
2019-04-27T09:40:46.646Z,94826.50
2019-04-27T09:43:15.812Z,94824.56
2019-04-27T09:45:44.608Z,94825.15
2019-04-27T09:48:13.232Z,94823.42
2019-04-27T09:50:41.870Z,94824.27
2019-04-27T09:53:10.412Z,94818.05
2019-04-27T09:55:39.023Z,94818.45
2019-04-27T09:58:07.705Z,94814.12
2019-04-27T10:00:37.758Z,94816.20
2019-04-27T10:03:06.674Z,94807.16
2019-04-27T10:05:36.719Z,94807.05
2019-04-27T10:08:06.267Z,94806.81
2019-04-27T10:10:37.001Z,94803.09
2019-04-27T10:13:06.992Z,94804.72
2019-04-27T10:15:35.802Z,94801.33
2019-04-27T10:18:06.106Z,94797.14
2019-04-27T10:20:39.035Z,94791.00
2019-04-27T10:23:06.252Z,94790.39
2019-04-27T10:25:35.507Z,94788.05
2019-04-27T10:28:06.798Z,94787.59
2019-04-27T10:30:36.724Z,94784.61
2019-04-27T10:33:05.991Z,94793.79
2019-04-27T10:35:36.334Z,94790.06
2019-04-27T10:38:05.328Z,94791.66
2019-04-27T10:40:33.881Z,94795.63
2019-04-27T10:43:02.497Z,94802.08
2019-04-27T10:45:31.106Z,94800.95
2019-04-27T10:47:59.718Z,94802.19
2019-04-27T10:50:28.432Z,94805.38
2019-04-27T10:52:59.333Z,94800.59
2019-04-27T10:55:27.342Z,94804.78
2019-04-27T10:57:55.878Z,94803.58
2019-04-27T11:00:26.349Z,94796.72
2019-04-27T11:02:56.547Z,94795.66
2019-04-27T11:05:31.077Z,94797.11
2019-04-27T11:07:59.053Z,94789.18
2019-04-27T11:10:27.862Z,94785.23
2019-04-27T11:12:56.546Z,94783.24
2019-04-27T11:15:26.751Z,94772.53
2019-04-27T11:17:56.145Z,94768.61
2019-04-27T11:20:27.739Z,94763.38
2019-04-27T11:23:06.697Z,94766.55
2019-04-27T11:25:26.515Z,94767.02
2019-04-27T11:27:55.947Z,94764.60
2019-04-27T11:30:26.095Z,94769.31
2019-04-27T11:32:58.931Z,94774.88
2019-04-27T11:35:26.952Z,94772.00
2019-04-27T11:37:59.989Z,94771.06
2019-04-27T11:40:29.005Z,94771.52
2019-04-27T11:42:57.582Z,94775.72
2019-04-27T11:45:28.442Z,94779.16
2019-04-27T11:47:57.368Z,94775.33
2019-04-27T11:50:26.497Z,94785.78
2019-04-27T11:52:56.683Z,94782.00
2019-04-27T11:55:27.169Z,94785.44
2019-04-27T11:57:56.026Z,94790.20
2019-04-27T12:00:27.524Z,94793.14
2019-04-27T12:02:56.757Z,94790.81
2019-04-27T12:05:26.148Z,94795.87
2019-04-27T12:07:56.072Z,94797.72
2019-04-27T12:10:26.304Z,94804.66
2019-04-27T12:12:56.282Z,94805.26
2019-04-27T12:15:26.254Z,94809.70
2019-04-27T12:17:56.117Z,94810.33
2019-04-27T12:20:26.223Z,94802.70
2019-04-27T12:22:54.891Z,94791.20
2019-04-27T12:25:23.680Z,94786.14
2019-04-27T12:28:08.881Z,94791.36
2019-04-27T12:30:55.301Z,94784.39
2019-04-27T12:33:25.598Z,94777.63
2019-04-27T12:35:54.522Z,94773.15
2019-04-27T12:38:23.132Z,94771.75
2019-04-27T12:40:51.749Z,94778.81
2019-04-27T12:43:21.121Z,94783.86
2019-04-27T12:45:49.746Z,94782.26
2019-04-27T12:48:18.247Z,94783.75
2019-04-27T12:50:47.339Z,94783.45
2019-04-27T12:53:17.527Z,94787.77
2019-04-27T12:55:56.618Z,94788.41
2019-04-27T12:58:34.056Z,94785.02
2019-04-27T13:01:07.523Z,94786.26
2019-04-27T13:03:36.494Z,94784.67
2019-04-27T13:06:05.065Z,94782.22
2019-04-27T13:08:35.613Z,94792.65
2019-04-27T13:11:05.851Z,94785.36
2019-04-27T13:13:34.363Z,94788.05
2019-04-27T13:16:03.008Z,94785.81
2019-04-27T13:18:31.632Z,94778.38
2019-04-27T13:21:00.279Z,94783.20
2019-04-27T13:23:28.825Z,94778.56
2019-04-27T13:25:57.440Z,94780.25
2019-04-27T13:28:26.060Z,94777.61
2019-04-27T13:30:55.943Z,94779.77
2019-04-27T13:33:26.339Z,94778.52
2019-04-27T13:35:55.147Z,94779.46
2019-04-27T13:38:23.723Z,94775.27
2019-04-27T13:40:55.534Z,94769.87
2019-04-27T13:43:28.631Z,94770.63
2019-04-27T13:46:08.857Z,94777.08
2019-04-27T13:48:56.243Z,94777.68
2019-04-27T13:51:32.153Z,94772.38
2019-04-27T13:54:14.990Z,94775.89
2019-04-27T13:56:35.084Z,94779.88
2019-04-27T13:59:05.491Z,94777.35
2019-04-27T14:01:34.428Z,94780.73
2019-04-27T14:04:07.012Z,94773.80
2019-04-27T14:06:35.943Z,94758.50
2019-04-27T14:09:09.049Z,94760.20
2019-04-27T14:11:39.172Z,94756.63
2019-04-27T14:14:07.898Z,94756.94
2019-04-27T14:16:36.440Z,94754.06
2019-04-27T14:19:05.121Z,94763.91
2019-04-27T14:21:33.669Z,94760.92
2019-04-27T14:24:02.294Z,94765.13
2019-04-27T14:26:30.945Z,94770.70
2019-04-27T14:28:59.652Z,94772.79
2019-04-27T14:31:29.164Z,94775.73
2019-04-27T14:33:58.759Z,94764.25
2019-04-27T14:36:29.125Z,94765.47
2019-04-27T14:38:58.816Z,94761.20
2019-04-27T14:41:28.255Z,94760.99
2019-04-27T14:44:07.530Z,94757.11
2019-04-27T14:46:28.325Z,94756.17
2019-04-27T14:48:57.795Z,94754.36
2019-04-27T14:51:26.433Z,94751.86
2019-04-27T14:53:55.026Z,94748.42
2019-04-27T14:56:25.014Z,94742.60
2019-04-27T14:58:53.936Z,94743.47
2019-04-27T15:01:22.684Z,94739.97
2019-04-27T15:03:51.292Z,94739.44
2019-04-27T15:06:21.988Z,94736.08
2019-04-27T15:08:50.575Z,94732.13
2019-04-27T15:11:19.481Z,94739.78
2019-04-27T15:13:50.504Z,94736.53
2019-04-27T15:16:18.751Z,94741.21
2019-04-27T15:18:51.896Z,94737.22
2019-04-27T15:21:20.509Z,94739.41
2019-04-27T15:23:49.296Z,94738.69
2019-04-27T15:26:20.166Z,94734.19
2019-04-27T15:28:51.164Z,94739.16
2019-04-27T15:31:26.417Z,94737.59
2019-04-27T15:33:54.654Z,94746.16
2019-04-27T15:36:40.135Z,94732.53
2019-04-27T15:39:11.134Z,94737.66
2019-04-27T15:42:01.989Z,94746.61
2019-04-27T15:44:30.043Z,94749.80
2019-04-27T15:46:58.652Z,94752.88
2019-04-27T15:49:28.661Z,94762.87
2019-04-27T15:51:58.397Z,94761.75
2019-04-27T15:54:32.007Z,94761.96
2019-04-27T15:56:58.184Z,94754.08
2019-04-27T15:59:30.935Z,94752.48
2019-04-27T16:01:59.512Z,94744.13
2019-04-27T16:04:28.135Z,94751.84
2019-04-27T16:06:58.254Z,94747.72
2019-04-27T16:09:28.347Z,94748.68
2019-04-27T16:12:09.952Z,94756.05
2019-04-27T16:14:30.670Z,94761.66
2019-04-27T16:17:03.008Z,94762.11
2019-04-27T16:19:29.919Z,94759.34
2019-04-27T16:21:59.096Z,94754.44
2019-04-27T16:24:29.058Z,94762.64
2019-04-27T16:26:59.102Z,94757.16
2019-04-27T16:29:31.372Z,94760.71
2019-04-27T16:31:58.439Z,94762.91
2019-04-27T16:34:28.651Z,94764.29
2019-04-27T16:36:59.472Z,94760.03
2019-04-27T16:39:28.698Z,94759.67
2019-04-27T16:41:58.707Z,94772.45
2019-04-27T16:44:27.600Z,94763.16
2019-04-27T16:46:58.167Z,94761.43
2019-04-27T16:49:26.577Z,94765.72
2019-04-27T16:51:55.231Z,94772.60
2019-04-27T16:54:23.699Z,94765.48
2019-04-27T16:57:02.015Z,94773.59
2019-04-27T16:59:44.061Z,94768.88
2019-04-27T17:01:52.844Z,94767.24
2019-04-27T17:04:21.568Z,94767.72
2019-04-27T17:06:50.058Z,94766.80
2019-04-27T17:09:19.058Z,94765.22
2019-04-27T17:11:50.139Z,94757.83
2019-04-27T17:14:22.230Z,94762.09
2019-04-27T17:16:58.145Z,94764.23
2019-04-27T17:22:14.644Z,94764.32
2019-04-27T17:24:47.397Z,94761.38
2019-04-27T17:27:16.488Z,94761.84
2019-04-27T17:29:44.332Z,94761.88
2019-04-27T17:32:17.254Z,94765.81
2019-04-27T17:34:48.781Z,94771.46
2019-04-27T17:37:17.632Z,94775.72
2019-04-27T17:39:46.200Z,94779.47
2019-04-27T17:42:14.679Z,94782.93
2019-04-27T17:44:43.316Z,94782.93
2019-04-27T17:47:11.850Z,94784.66
2019-04-27T17:49:40.641Z,94780.40
2019-04-27T17:52:13.060Z,94783.80
2019-04-27T17:54:40.840Z,94787.25
2019-04-27T17:57:13.383Z,94789.83
2019-04-27T17:59:40.187Z,94793.20
2019-04-27T18:02:11.069Z,94788.50
2019-04-27T18:04:41.022Z,94787.61
2019-04-27T18:07:09.810Z,94789.72
2019-04-27T18:09:43.295Z,94797.02
2019-04-27T18:12:14.812Z,94800.05
2019-04-27T18:14:41.168Z,94803.89
2019-04-27T18:17:12.103Z,94810.77
2019-04-27T18:19:47.164Z,94814.99
2019-04-27T18:22:17.883Z,94814.61
2019-04-27T18:24:47.834Z,94818.03
2019-04-27T18:27:18.424Z,94817.61
2019-04-27T18:29:48.609Z,94822.38
2019-04-27T18:32:17.605Z,94819.42
2019-04-27T18:34:49.429Z,94814.36
2019-04-27T18:37:21.287Z,94817.28
2019-04-27T18:39:51.003Z,94816.75
2019-04-27T18:42:18.138Z,94817.17
2019-04-27T18:44:48.604Z,94815.47
2019-04-27T18:47:17.352Z,94816.00
2019-04-27T18:49:53.707Z,94815.55
2019-04-27T18:52:26.714Z,94816.45
2019-04-27T18:54:55.866Z,94821.20
2019-04-27T18:57:24.454Z,94818.22
2019-04-27T18:59:53.023Z,94816.20
2019-04-27T19:02:21.640Z,94809.40
2019-04-27T19:04:50.259Z,94811.57
2019-04-27T19:07:19.937Z,94807.70
2019-04-27T19:09:49.636Z,94808.54
2019-04-27T19:12:20.173Z,94812.38
2019-04-27T19:14:49.743Z,94814.49
2019-04-27T19:17:19.882Z,94811.16
2019-04-27T19:19:48.709Z,94808.75
2019-04-27T19:22:17.317Z,94807.11
2019-04-27T19:24:45.798Z,94810.09
2019-04-27T19:27:21.070Z,94814.84
2019-04-27T19:29:53.787Z,94814.38
2019-04-27T19:32:22.421Z,94811.87
2019-04-27T19:34:51.053Z,94815.29
2019-04-27T19:37:19.709Z,94813.64
2019-04-27T19:39:49.798Z,94817.48
2019-04-27T19:42:20.336Z,94813.67
2019-04-27T19:44:49.274Z,94807.35
2019-04-27T19:47:17.918Z,94803.52
2019-04-27T19:49:46.564Z,94798.42
2019-04-27T19:52:15.221Z,94796.30
2019-04-27T19:54:43.847Z,94786.98
2019-04-27T19:57:12.492Z,94792.97
2019-04-27T19:59:45.715Z,94786.64
2019-04-27T20:02:15.892Z,94788.03
2019-04-27T20:04:45.582Z,94791.40
2019-04-27T20:07:14.297Z,94791.88
2019-04-27T20:09:47.822Z,94790.59
2019-04-27T20:12:17.894Z,94783.28
2019-04-27T20:14:58.399Z,94786.64
2019-04-27T20:17:31.130Z,94792.19
2019-04-27T20:20:00.620Z,94799.34
2019-04-27T20:22:29.242Z,94800.25
2019-04-27T20:24:57.874Z,94799.05
2019-04-27T20:27:26.490Z,94796.16
2019-04-27T20:29:55.063Z,94790.66
2019-04-27T20:32:23.675Z,94789.83
2019-04-27T20:34:52.332Z,94793.30
2019-04-27T20:37:21.171Z,94790.77
2019-04-27T20:39:51.459Z,94794.22
2019-04-27T20:42:21.129Z,94793.42
2019-04-27T20:44:51.652Z,94790.87
2019-04-27T20:47:20.523Z,94795.16
2019-04-27T20:49:52.248Z,94801.55
2019-04-27T20:52:40.802Z,94801.91
2019-04-27T20:55:11.257Z,94800.66
2019-04-27T20:57:41.650Z,94806.20
2019-04-27T21:00:12.153Z,94806.11
2019-04-27T21:02:48.379Z,94800.11
2019-04-27T21:05:34.778Z,94804.38
2019-04-27T21:08:06.977Z,94806.09
2019-04-27T21:10:35.513Z,94803.02
2019-04-27T21:13:04.229Z,94811.97
2019-04-27T21:15:32.847Z,94811.50
2019-04-27T21:18:01.834Z,94812.83
2019-04-27T21:20:30.971Z,94813.69
2019-04-27T21:23:01.790Z,94813.30
2019-04-27T21:25:31.528Z,94814.26
2019-04-27T21:28:14.598Z,94814.70
2019-04-27T21:30:31.413Z,94814.73
2019-04-27T21:33:01.109Z,94815.62
2019-04-27T21:35:30.022Z,94807.17
2019-04-27T21:37:58.799Z,94807.28
2019-04-27T21:40:27.637Z,94795.48
2019-04-27T21:42:56.200Z,94787.87
2019-04-27T21:45:25.071Z,94780.70
2019-04-27T21:47:54.551Z,94774.02
2019-04-27T21:50:23.411Z,94778.69
2019-04-27T21:53:05.250Z,94778.22
2019-04-27T21:55:35.435Z,94778.69
2019-04-27T21:58:04.046Z,94773.13
2019-04-27T22:00:42.987Z,94774.88
2019-04-27T22:03:13.603Z,94782.09
2019-04-27T22:05:42.203Z,94782.62
2019-04-27T22:08:11.687Z,94772.87
2019-04-27T22:10:40.793Z,94775.88
2019-04-27T22:13:09.396Z,94776.73
2019-04-27T22:15:38.017Z,94771.63
2019-04-27T22:18:06.734Z,94771.23
2019-04-27T22:20:35.833Z,94768.30
2019-04-27T22:23:18.194Z,94770.88
2019-04-27T22:25:47.102Z,94772.22
2019-04-27T22:28:15.717Z,94770.94
2019-04-27T22:30:47.321Z,94770.98
2019-04-27T22:33:15.855Z,94768.08
2019-04-27T22:35:44.478Z,94765.94
2019-04-27T22:38:13.400Z,94766.33
2019-04-27T22:41:01.986Z,94767.14
2019-04-27T22:43:37.585Z,94765.02
2019-04-27T22:46:07.837Z,94766.31
2019-04-27T22:48:36.443Z,94759.90
2019-04-27T22:51:05.106Z,94764.95
2019-04-27T22:53:33.743Z,94765.37
2019-04-27T22:56:16.001Z,94764.49
2019-04-27T22:58:57.444Z,94771.03
2019-04-27T23:01:24.759Z,94770.16
2019-04-27T23:04:11.941Z,94764.64
2019-04-27T23:06:41.843Z,94767.20
2019-04-27T23:09:13.877Z,94778.65
2019-04-27T23:11:42.584Z,94773.16
2019-04-27T23:14:11.328Z,94771.08
2019-04-27T23:16:48.157Z,94769.41
2019-04-27T23:19:16.787Z,94770.70
2019-04-27T23:21:45.427Z,94768.15
2019-04-27T23:24:14.149Z,94767.31
2019-04-27T23:26:46.763Z,94764.78
2019-04-27T23:29:16.062Z,94760.09
2019-04-27T23:31:47.669Z,94760.11
2019-04-27T23:34:16.334Z,94763.97
2019-04-27T23:36:44.868Z,94757.58
2019-04-27T23:39:13.432Z,94758.85
2019-04-27T23:41:42.079Z,94758.47
2019-04-27T23:44:10.720Z,94762.69
2019-04-27T23:46:39.259Z,94766.08
2019-04-27T23:49:07.946Z,94765.66
2019-04-27T23:51:41.434Z,94763.05
2019-04-27T23:54:11.555Z,94766.48
2019-04-27T23:56:42.022Z,94766.85
2019-04-27T23:59:23.846Z,94770.63
